Aviation Digital Data Service (ADDS)

Output produced by METARs form (0000 UTC 24 May 2022)
found at http://www.aviationweather.gov/metar/data/
 
TAF VEAT 232300Z 2400/2506 15003KT 4000 BR SCT018 SCT100 
     BECMG 2402/2404 5000 HZ FEW018 SCT100 
     TEMPO 2411/2415 30010G20KT 2000 -TSRA SCT018 FEW030CB OVC090 
     TEMPO 2500/2504 30010G20KT 2000 -TSRA SCT018 FEW030CB OVC090
       
TAF VIAG 231530Z 2318/2406 13010KT 6000 SCT030 BKN090 
     TEMPO 2320/2324 29025G35KT 2000 TSRABLDU SCT025 FEW030CB BKN090 
     TEMPO 2401/2403 12015G25KT 5000 TSRA SCT025 FEW030CB BKN100
       
VAAH 232330Z 22008KT 4000 DU SCT020 BKN080 32/25 Q1001 NOSIG
TAF VAAH 232300Z 2400/2409 23010KT 4000 DRDU BKN080 
     BECMG 2401/2403 25005KT 3000 FEW020 SCTO80 
     BECMG 2404/2406 23010G20KT 4000 TAF VABO 232300Z 2400/2409 25015G25KT 6000
NSC 
     BECMG 2401/2403 23012KT 4000 HZ FEW020 
     BECMG 2404/2406 25008G18KT
       
TAF VEAN 232300Z 2400/2409 18005KT 3000 BR FEW018 SCT100 
     BECMG 2401/2403 6000 
     BECMG 2406/2408 6000 SCT018 BKN100
       
VIAR 232330Z VRB02KT 3000 HZ FEW100 23/18 Q1004 NOSIG
TAF VIAR 232302Z 2400/2506 02005KT 2500 HZ FEW100 
     TEMPO 2400/2405 05010G20KT 1500 TSRA FEW035CB OVC080 
     BECMG 2407/2409 09010KT 4000 HZ SCT035 SCT090 
     BECMG 2415/2417 07008KT 2500 HZ FEW040 SCT100 
     BECMG 2503/2505 VRB02KT 3500 HZ FEW100
       
VAAU 232100Z 27006KT 6000 NSC 26/20 Q1005 NOSIG
TAF VAAU 232300Z 2400/2409 27010KT 3000 HZ FU SCT020 SCT100 
     TEMPO 2403/2407 27010G20KT SCT020 SCT025 
     BECMG 2403/2405 25006KT 4000 FU
       
TAF VEBD 232300Z 2400/2409 04005KT 2600 -RA HZ SCT018 SCT100 
     BECMG 2403/2405 12005KT 3500 -RA HZ 
     BECMG 2407/2409 5000 -RA HZ
       
TAF VOBG 232300Z 2400/2409 27010KT 6000 SCT012 SCT080 
     TEMPO 2400/2403 3000 BR SCT008 SCT012 BKN080
       
TAF VIBY 231530Z 2400/2412 12020KT 3000 TSRA SCT015 BKN090 FEW030 TCU/CB 
     BECMG 2404/2406 11012 6000 SCT020 SCT080 
     TEMPO 2408/2410 SCT025 FEW030 CB SCT080 TN 18/01 TX 34/09Z
       
TAF VIBT 231530Z 2400/2412 15010KT 5000 DUST HAZE SCT030 SCT080 
     TEMPO 2408/2412 14010G20KT FEW030CB
       
TAF VABV 232300Z 2400/2409 23012KT 4000 DRDU SCT020 BECMH 2405/2407 18010G18KT
       
TAF VABP 232000Z 2321/2406 06010KT 5000 HZ SCT020 BKN100 
     TEMPO 2301/2401 06010G20KT 3000 -TSRA SCT020 FEW030CB BKN100 
     BECMG 2401/2403 21008KT 5000 HZ FEW030 SCT100
       
VEBS 232330Z 02007KT 3000 -TSRA SCT018 FEW030CB OVC090 23/22 Q1004 NOSIG
TAF VEBS 232300Z 2400/2506 00000KT 4000 HZ FEW018 
     BECMG 2403/2405 18006KT 5000 HZ SCT018 SCT100 
     TEMPO 2409/2413 1500 TSRA BKN015 FEW030CB OVC090 
     BECMG 2412/2414 16005KT 4000 HZ SCT018 
     BECMG 2502/2504 5000 HZ
       
TAF VABJ 232300Z 2400/2409 23015G25KT 5000 DRDU HZ BKN020 
       
TAF VOBR 231530Z 2400/2412 27010KT 6000 FEW030
       
VERC 232300Z 00000KT 2000 HZ SCT018 BKN100 20/19 Q1006 NOSIG
TAF VERC 232300Z 2400/2409 18005KT 2500 BR HZ SCT018 SCT100 
     BECMG 2404/2406 5000 HZ 
     TEMPO 2407/2409 2500 -TSRA SCT018 FEW030CB SCT100
       
VOCL 232330Z 10002KT 1000 TS FG SCT002 SCT012 FEW025CB 25/24 Q1006 NOSIG
TAF VOCL 232300Z 2400/2506 VRB03KT 3000 -TSRA BR FEW008 SCT015 FEW025CB 
     BECMG 2403/2405 26010KT 6000 FEW012 SCT018 
     BECMG 2414/2415 VRB03KT 5000 HZ FEW015 SCT080 
     BECMG 2420/2421 4000 RA BR FEW008 SCT012 BKN080 
     BECMG 2502/2504 26010KT 6000 FEW015 SCT080
       
TAF VOCX 231530Z 2400/2412 23010KT 6000 SCT020 SCT100 BKN200 
     TEMPO 2402/2406 23015KT 5000 RA SCT015 SCT020 BKN080
       
TAF VICG 231530Z 2318/2406 23010KT 5000 TSRA SCT025 FEW030CB BKN090 
     BECMG 2322/2324 16005KT 6000 FEW025 SCT090 
     BECMG 2402/2404 14010KT 6000 SCT250 
     TEMPO 2405/2406 23010G20KT 3000 TSRA SCT025 FEW030CB BKN090
       
VOMM 232330Z 20007KT 6000 FEW020 30/26 Q1002 NOSIG
TAF VOMM 232300Z 2400/2506 25005KT 5000 HZ FEW020 SCT100 
     BECMG 2403/2404 6000 
     BECMG 2409/2410 18010KT 
     BECMG 2421/2422 25005KT 5000 HZ 
     BECMG 2503/2504 6000
       
VABB 232330Z 25008KT 3000 HZ SCT020 30/26 Q1004 NOSIG
TAF VABB 232300Z 2400/2506 24010KT 3500 HZ FEW020 SCT025 
     TEMPO 2400/2403 2500 -RA DZ 
     BECMG 2402/2404 24010G20KT 4000 HZ 
     TEMPO 2405/2413 25012G22KT 
     BECMG 2414/2416 22010KT 3500 HZ 
     BECMG 2419/2421 23008KT SCT018 SCT025 
     BECMG 2501/2503 24012KT 3000 -RA DZ
       
VOCI 232300Z 08004KT 3000 BR FEW010 SCT012 BKN080 25/25 Q1006 TEMPO 2000 RA
TAF VOCI 232300Z 2400/2506 VRB03KT 2000 RA BR FEW010 SCT012 FEW025CB BKN080 
     BECMG 2403/2405 4000 RA DZ SCT015 BKN080 
     BECMG 2406/2407 29010KT 6000 FEW015 SCT080 
     TEMPO 2412/2416 3000 RA DZ FEW010 SCT015 FEW025CB BKN080 
     BECMG 2416/2417 VRB03KT 4000 BR SCT012 BKN080 
     TEMPO 2422/2502 2000 +RA BR FEW008 SCT012 FEW025CB OVC080 
     BECMG 2503/2505 5000 DZ BR SCT012 BKN080
       
VOCB 232330Z 20008KT 4000 BR SCT012 25/24 Q1007 NOSIG
TAF VOCB 232300Z 2400/2506 20010KT 3000 BR SCT015 SCT080 
     BECMG 2403/2405 6000 
     BECMG 2412/2413 5000 BR 
     BECMG 2421/2422 3000 BR 
     BECMG 2503/2504 6000
       
TAF VECO 232300Z 2400/2409 07005KT 2400 -RA BR SCT018 SCT100 
     BECMG 2404/2406 13005KT 3500 -RA HZ
       
TAF VOCP 232300Z 2400/2409 28006KT 5000 HZ SCT020 
     TEMPO 2400/2403 VRB03KT 3000 BR SCT015 
     BECMG 2404/2406 26010G20KT 6000 SCT020 SCT025
       
TAF VIDN 232300Z 2400/2409 05008KT 3000 BR RA BKN025 OVC060 
     TEMPO 2400/2406 05010G25KT 1500 -TSRA FEW030CB
       
TAF VAID 232300Z 2400/2506 27012KT 5000 HZ SCT020 SCT100 
     TEMPO 2402/2406 3000 -TSRA SCT020 FEW030 BKN100 
     BECMG 2413/2415 27008KT 6000 SCT020 BKN100 
     BECMG 2501/2503 5000 HZ SCT020 SCT100
       
VEMN 232330Z 02003KT 2500 BR SCT020 BKN100 26/24 Q1004 NOSIG
TAF VEMN 232300Z 2400/2409 05005KT 3000 BR FEW018 SCT100 
     BECMG 2403/2405 25005KT 5000 HZ
       
TAF VEGK 231530Z 2400/2412 29010G20KT 2000 TSRA SCT030 FEW030CB BKN090 
     BECMG 2404/2406 12010KT 6000 FEW030 SCT100 
     BECMG 2410/2412 12010G20KT 6000 FEW030 FEW030TCU SCT090
       
VEGT 232330Z 00000KT 2000 BR SCT018 SCT100 25/25 Q1003 NOSIG
TAF VEGT 232300Z 2400/2506 02005KT 3000 BR FEW020 BKN100 
     BECMG 2403/2405 5000 FEW020 SCT100 
     BECMG 2413/2415 18005KT 3000 BR FEW018 SCT100 
     TEMPO 2501/2502 25005KT 2500 -RA SCT018 FEW025CB BKN100 
     BECMG 2503/2505 05005KT 5000 HZ FEW020 SCT100
       
TAF VIGR 231530Z 2400/2412 27020G30KT 3000 TSRA SCT030 FEW030CB BKN090 
     BECMG 2404/2406 27010KT 5000 BR FEW030 SCT090 
     BECMG 2406/2408 27010G20KT 6000 FEW030 SCT090 
     TEMPO 2410/2412 27020G30KT 2000 TSRA SCT030 FEW030CB BKN090
       
TAF VOHY 232300Z 2400/2409 23005KT 4000 HZ BR FEW015 
     BECMG 2405/2406 29010G20KT 6000 FEW015 SCT025
       
TAF VEIM 232300Z 2400/2409 34005KT 2500 -RA BR FEW009 SCT018 BKN090 
     BECMG 2403/2405 27005KT 5000 BR HZ SCT018 BKN100
       
VIDP 232330Z 09003KT 3500 BR FEW040 SCT100 20/20 Q1002 NOSIG
TAF VIDP 232302Z 2400/2409 06003KT 3000 BR BKN030 FEW035CB OVC080 
     BECMG 2403/2405 11008G18KT 3500 HZ FEW035 SCT100
       
TAF VAJB 232000Z 2321/2406 12012G22KT 5000 HZ FEW020 
     BECMG 2401/2403 27008KT 4000 HZ NSC
       
VIJP 232330Z 09008KT 3000 HZ FEW100 22/18 Q1003 NOSIG
TAF VIJP 232300Z 2400/2409 14005KT 3000 HZ FEW030 
     BECMG 2404/2406 14006KT 4000 HZ NSC
       
TAF VIJR 231530Z 2400/2412 02005KT 5000 DUBR FEW030 
     BECMG 2405/2407 6000
       
TAF VAJM 232300Z 2400/2409 25010G22KT 6000 SCT020 
     BECMG 2401/2403 27010KT SCT020
       
TAF VEJS 232300Z 2400/2409 00000KT 2500 HZ SCT018 SCT100 
     BECMG 2403/2405 16005KT 3500 HZ 
     BECMG 2407/2409 5000 HZ
       
TAF VIJO 232300Z 2400/2409 23012KT 3000 HZ NSC 
     BECMG 2404/2406 23012KT 5000 HZ
       
TAF VEJT 232300Z 2400/2409 02005KT 3000 BR FEW018 BKN100 
     BECMG 2404/2406 20005KT 5000 HZ SCT018 BKN100
       
TAF VAKE 231400Z 2315/2324 23015G25KT 3000 DRDU HZ FEW020 
     BECMG 2316/2318 23012KT SCT020
       
TAF VIGG 232300Z 2400/2409 VRB02KT 5000 HZ -RA SCT035 BKN080 
     TEMPO 2404/2409 3000 -TSRA FEW040CB OVC080
       
TAF VAKP 232300Z 2400/2409 27010KT 3000 FU FEW020 SCT025 BKN100 
     TEMPO 2405/2409 24010G20KT 
     BECMG 2405/2407 29008KT 4000 FU HZ
       
TAF VIKO 232300Z 2400/2409 18008KT 3000 HZ NSC 
     BECMG 2404/2406 27008KT 5000 HZ NSC
       
TAF VIBR 232300Z 2400/2409 VRB02KT 5000 BR -RA SCT040 BKN080 
     TEMPO 2400/2406 2000 -TSRA FEW040CB OVC060
       
VELR 230000Z 05002KT 5000 BR FEW020 BKN100 25/24 Q1004
TAF VELR 232300Z 2400/2409 03005KT 3000 BR FEW020 SCT100 
     BECMG 2403/2405 14005KT 6000 FEW020
       
VILK 232330Z VRB02KT 3000 BR SCT018 FEW030CB BKN090 22/21 Q1004 NOSIG
TAF VILK 232300Z 2400/2409 VRB02KT 3000 HZ BR SCT020 BKN100 
     TEMPO 2405/2409 12010G20KT 1500 -TSRA FEW030CB OVC090
       
VOMD 232000Z 35004KT 6000 FEW020 29/23 Q1005 NOSIG
TAF VOMD 232300Z 2400/2506 VRB02KT 5000 HZ FEW020 SCT100 
     BECMG 2403/2404 27010KT 6000 
     BECMG 2421/2422 VRB02KT 5000 HZ 
     BECMG 2503/2504 27010KT 6000
       
VOML 232330Z 00000KT 0500 R24/1000 FG FEW001 SCT012 27/26 Q1006 NOSIG
TAF VOML 232300Z 2400/2506 09005KT 5000 BR FEW005 SCT012 BKN080 
     TEMPO 2400/24
       
VANP 232300Z 01005KT 3000 HZ FEW100 29/20 Q1003 NOSIG
TAF VANP 232300Z 2400/2506 34009KT 2500 HZ -RA FEW020 FEW030TCU SCT100 
     BECMG 2404/2406 27008KT 5000 HZ -RA SCT025 FEW030CB BKN100 
     TEMPO 2409/2415 32015G25KT 1500 TSRA SCT018 FEW030CB OVC080 
     BECMG 2412/2414 3500 HZ -RA SCT020 FEW030CB BKN090 
     BECMG 2418/2420 34007KT 3500 HZ FEW020 SCT100 
     BECMG 2500/2502 3000 HZ SCT020 SCT100 
     TEMPO 2503/2506 34015G25KT 1500 TSRA SCT018 FEW030CB OVC080
       
TAF VIBK 231530Z 2400/2412 21010G20KT 2000 DU SCT030 
     TEMPO 2401/2403 19010G20KT 1000 TSBLDU FEW030CB SCT040 SCT090 
     BECMG 2306/2308 26010G20KT 5000 DU
       
VECC 232330Z 15004KT 3500 HZ FEW020 SCT100 29/26 Q1002 NOSIG
TAF VECC 232300Z 2400/2506 16005KT 2800 HZ SCT020 SCT100 
     TEMPO 2400/2404 28015G25KT 1400 TSRA SCT015 FEW025CB OVC090 
     BECMG 2404/2406 4000 HZ 
     TEMPO 2410/2414 31020G30KT 1500 TSRA SCT015 FEW025CB OVC090 
     BECMG 2423/2501 2600 HZ 
     BECMG 2503/2505 3500 HZ
       
TAF VIPK 231530Z 2400/2412 05007KT 6000 FEW030 SCT090 
     TEMPO 2409/2412 34010G20KT 4000 TSDU FEW030 FEW030CB BKN100
       
VEPT 232330Z 34004KT 2500 BR FEW018 SCT100 26/20 Q1002 NOSIG
TAF VEPT 232300Z 2400/2506 01010KT 2500 BR SCT018 SCT100 
     BECMG 2404/2406 08010KT 3500 HZ SCT100 
     BECMG 2408/2410 5000 HZ SCT018 SCT100 
     TEMPO 2412/2416 2000 -TSRA SCT018 FEW030CB SCT100 
     BECMG 2418/2420 18005KT 2500 BR HZ SCT100 
     BECMG 2404/2406 05005KT 5000 HZ
       
TAF VAPR 232300Z 2400/2409 27010G20KT 6000 SCT025 
     BECMG 2300/2402 27012G22KT 5000 HZ SCT020
       
VOPB 232300Z 23010G20KT 5000 BR SCT012 SCT020 FEW022TCU OVC080 29/26 Q1005 TEMPO-RA
TAF VOPB 232100Z 2400/2409 24010KT 5000 DZ/BR SCT012 SCT020 BKN080 
     TEMPO 2400/2408 24010G20KT 1000 TSRA/RA SCT010 SCT018 FEW022TCU/CB OVC080
       
TAF VAPO 231530Z 2318/2406 27010G20KT 6000 SCT030
       
TAF VORY 232300Z 2400/2409 23006KT 3000 BR SCT020 
     BECMG 2404/2406 25010G20KT 6000 FEW015 SCT100
       
VARK 231900Z 23013KT 6000 FEW012 30/24 Q1001 NOSIG
TAF VARK 232300Z 2400/2409 25012G22KT 6000 NSC 
     BECMG 2401/2103 27012G20KT 5000 HZ SCT020
       
TAF VISP 231530Z 2400/2412 09005KT 6000 SCT030 BKN100 
     TEMPO 2402/2405 FEW030TCU/CB 
     TEMPO 2410/2412 FEW030CB
       
TAF VISM 232300Z 2400/2409 VRB02KT 3500 BR -RA BKN030 OVC050 
     TEMPO 2406/2409 2000 -TSRA FEW035CB
       
TAF VASL 232300Z 2400/2409 27010KT 3000 FU FEW020 SCT025 BKN100 
     TEMPO 2405/2409 24010G20KT 
     BECMG 2405/2407 29008KT 4000 FU HZ
       
TAF VEKU 232300Z 2400/2409 09003KT 3000 BR SCT018 BKN100 
     BECMG 2404/2406 27005KT 5000 HZ FEW020 SCT100
       
TAF VISR 231530Z 2318/2406 20010KT 6000 RA SCT020 FEW030CB BKN080
       
TAF VASU 232300Z 2400/2409 20015G25KT 6000 FEW020 
     BECMG 2400/2402 23012KT 4000 HZ SCT015 
     BECMG 2404/2406 20014G28KT
       
TAF VETZ 232300Z 2400/2409 07005KT 3000 BR FEW020 
     BECMG 2403/2405 5000 HZ FEW020 SCT100
       
VOTV 232330Z 33004KT 3000 -TSRA SCT008 SCT012 FEW025CB OVC080 25/24 Q1007 TEMPO 2000 RA
TAF VOTV 232300Z 2400/2506 VRB03KT 2500 -RA BR FEW008 SCT012 BKN080 
     BECMG 2403/2405 29010KT 6000 SCT015 SCT080 
     BECMG 2406/2407 29015G25KT 
     BECMG 2414/2415 32010KT 4000 BR 
     BECMG 2417/2418 3000 BR SCT012 BKN080 
     TEMPO 2422/2502 2000 RA BR FEW008 SCT012 FEW025CB BKN080 
     BECMG 2503/2505 29010KT 5000 HZ SCT015 SCT080
       
VOTR 232300Z 26008KT 4000 BR FEW016 28/23 Q1004 NOSIG
TAF VOTR 232300Z 2400/2506 27010KT 3000 BR FEW020 SCT100 
     BECMG 2403/2404 5000 HZ 
     BECMG 2409/2410 6000 
     TEMPO 2409/2415 SCT018 FEW025TCU/CB SCT100 
     BECMG 2412/2413 5000 HZ 
     BECMG 2421/2422 3000 BR 
     BECMG 2503/2504 5000 HZ
       
TAF VOTP 232300Z 2400/2409 28006KT 5000 HZ SCT020 
     TEMPO 2400/2403 VRB03KT 3000 BR SCT015 
     BECMG 2404/2406 26010G20KT 6000 SCT020 SCT025
       
TAF VAUD 232300Z 2400/2409 23010KT 3000 HZ FEW030 
     BECMG 2404/2406 23010KT 5000 HZ NSC
       
TAF VIUT 231530Z 2400/2412 23010KT 3000 DU FEW020 
     BECMG 2404/2405 4000 DU 
     PROB40 
     TEMPO 2406/2408 SCT030 FEW030TCU
       
VABO 232300Z 28009KT 6000 FEW020 29/25 Q1000 NOSIG
TAF VABO 232300Z 2400/2409 25015G25KT 6000 NSC 
     BECMG 2401/2403 23012KT 4000 HZ FEW020 
     BECMG 2404/2406 25008G18KT
       
TAF VOBZ 232300Z 2400/2409 23006KT 3000 BR SCT020 
     BECMG 2404/2406 25010G20KT 6000 FEW015 SCT100